createdAt,value
2023-03-30T00:00:46.666Z,9.72
2023-03-30T00:01:49.055Z,9.74
2023-03-30T00:02:53.910Z,9.66
2023-03-30T00:03:59.136Z,9.62
2023-03-30T00:05:03.375Z,9.54
2023-03-30T00:06:07.698Z,9.53
2023-03-30T00:07:11.104Z,9.48
2023-03-30T00:08:14.480Z,9.55
2023-03-30T00:09:16.905Z,9.56
2023-03-30T00:10:19.300Z,9.58
2023-03-30T00:11:23.552Z,9.57
2023-03-30T00:12:27.708Z,9.57
2023-03-30T00:13:30.215Z,9.55
2023-03-30T00:14:32.441Z,9.54
2023-03-30T00:15:34.837Z,9.59
2023-03-30T00:16:37.758Z,9.53
2023-03-30T00:17:40.106Z,9.61
2023-03-30T00:18:42.400Z,9.62
2023-03-30T00:19:45.917Z,9.64
2023-03-30T00:20:52.428Z,9.62
2023-03-30T00:21:55.252Z,9.62
2023-03-30T00:22:57.946Z,9.61
2023-03-30T00:24:00.363Z,9.60
2023-03-30T00:25:02.583Z,9.59
2023-03-30T00:26:05.119Z,9.58
2023-03-30T00:27:07.555Z,9.53
2023-03-30T00:28:09.792Z,9.52
2023-03-30T00:29:12.013Z,9.55
2023-03-30T00:30:17.089Z,9.54
2023-03-30T00:31:19.269Z,9.52
2023-03-30T00:32:21.966Z,9.53
2023-03-30T00:33:37.241Z,9.59
2023-03-30T00:34:47.109Z,9.66
2023-03-30T00:35:57.168Z,9.67
2023-03-30T00:36:59.787Z,9.71
2023-03-30T00:38:03.322Z,9.71
2023-03-30T00:39:06.739Z,9.77
2023-03-30T00:40:14.460Z,9.68
2023-03-30T00:41:17.733Z,9.61
2023-03-30T00:42:21.984Z,9.67
2023-03-30T00:43:26.586Z,9.63
2023-03-30T00:45:26.567Z,9.65
2023-03-30T00:46:31.297Z,9.65
2023-03-30T00:47:38.445Z,9.55
2023-03-30T00:48:40.834Z,9.56
2023-03-30T00:49:44.021Z,9.64
2023-03-30T00:50:47.617Z,9.56
2023-03-30T00:51:50.866Z,9.58
2023-03-30T00:52:55.536Z,9.55
2023-03-30T00:54:07.707Z,9.60
2023-03-30T00:55:11.334Z,9.58
2023-03-30T00:56:16.588Z,9.63
2023-03-30T00:57:24.865Z,9.69
2023-03-30T00:58:28.551Z,9.67
2023-03-30T00:59:31.008Z,9.67
2023-03-30T01:00:34.371Z,9.72
2023-03-30T01:01:39.515Z,9.69
2023-03-30T01:02:50.802Z,9.76
2023-03-30T01:03:53.978Z,9.81
2023-03-30T01:04:57.887Z,9.82
2023-03-30T01:06:03.205Z,9.85
2023-03-30T01:07:06.762Z,9.80
2023-03-30T01:08:14.065Z,9.82
2023-03-30T01:09:17.447Z,9.86
2023-03-30T01:10:21.141Z,9.85
2023-03-30T01:11:23.927Z,9.95
2023-03-30T01:12:26.328Z,9.96
2023-03-30T01:13:31.020Z,9.89
2023-03-30T01:14:33.619Z,9.90
2023-03-30T01:15:42.942Z,9.86
2023-03-30T01:16:51.326Z,9.85
2023-03-30T01:18:08.457Z,9.80
2023-03-30T01:19:19.539Z,9.87
2023-03-30T01:21:03.318Z,9.83
2023-03-30T01:22:41.301Z,9.72
2023-03-30T01:24:11.737Z,9.74
2023-03-30T01:25:36.668Z,9.73
2023-03-30T01:26:51.747Z,9.71
2023-03-30T01:28:36.675Z,9.66
2023-03-30T01:29:43.033Z,9.62
2023-03-30T01:31:07.357Z,9.62
2023-03-30T01:32:21.750Z,9.60
2023-03-30T01:33:40.305Z,9.62
2023-03-30T01:35:06.139Z,9.65
2023-03-30T01:36:41.780Z,9.68
2023-03-30T01:38:06.093Z,9.69
2023-03-30T01:39:11.513Z,9.75
2023-03-30T01:40:19.403Z,9.79
2023-03-30T01:41:45.138Z,9.86
2023-03-30T01:42:53.206Z,9.85
2023-03-30T01:44:10.917Z,9.75
2023-03-30T01:45:21.041Z,9.76
2023-03-30T01:46:31.019Z,9.68
2023-03-30T01:47:41.369Z,9.60
2023-03-30T01:49:12.488Z,9.53
2023-03-30T01:50:23.622Z,9.62
2023-03-30T01:51:31.882Z,9.59
2023-03-30T01:53:00.441Z,9.56
2023-03-30T01:54:12.829Z,9.49
2023-03-30T01:55:19.093Z,9.63
2023-03-30T01:56:51.637Z,9.66
2023-03-30T01:58:03.305Z,9.67
2023-03-30T01:59:12.630Z,9.69
2023-03-30T02:00:20.377Z,9.71
2023-03-30T02:01:27.784Z,9.71
2023-03-30T02:02:33.093Z,9.69
2023-03-30T02:03:41.714Z,9.66
2023-03-30T02:04:48.658Z,9.62
2023-03-30T02:05:56.578Z,9.44
2023-03-30T02:07:06.189Z,9.52
2023-03-30T02:08:13.676Z,9.50
2023-03-30T02:09:20.268Z,9.44
2023-03-30T02:10:27.380Z,9.52
2023-03-30T02:11:32.976Z,9.62
2023-03-30T02:12:36.797Z,9.59
2023-03-30T02:13:41.140Z,9.62
2023-03-30T02:14:43.785Z,9.58
2023-03-30T02:15:53.070Z,9.56
2023-03-30T02:17:06.668Z,9.54
2023-03-30T02:18:10.294Z,9.55
2023-03-30T02:19:13.060Z,9.58
2023-03-30T02:20:18.934Z,9.62
2023-03-30T02:21:22.483Z,9.43
2023-03-30T02:22:27.312Z,9.50
2023-03-30T02:23:35.473Z,9.48
2023-03-30T02:24:38.050Z,9.42
2023-03-30T02:25:43.731Z,9.54
2023-03-30T02:26:51.763Z,9.51
2023-03-30T02:27:58.567Z,9.50
2023-03-30T02:29:01.220Z,9.44
2023-03-30T02:30:07.831Z,9.46
2023-03-30T02:31:14.393Z,9.44
2023-03-30T02:32:25.164Z,9.43
2023-03-30T02:33:53.091Z,9.39
2023-03-30T02:35:19.319Z,9.45
2023-03-30T02:36:44.925Z,9.42
2023-03-30T02:38:09.937Z,9.50
2023-03-30T02:39:34.632Z,9.62
2023-03-30T02:40:40.101Z,9.62
2023-03-30T02:42:00.630Z,9.61
2023-03-30T02:43:35.277Z,9.50
2023-03-30T02:45:06.761Z,9.48
2023-03-30T02:46:31.277Z,9.50
2023-03-30T02:47:56.046Z,9.59
2023-03-30T02:49:05.026Z,9.51
2023-03-30T02:50:24.139Z,9.44
2023-03-30T02:51:46.101Z,9.45
2023-03-30T02:53:13.560Z,9.55
2023-03-30T02:54:40.946Z,9.56
2023-03-30T02:56:30.235Z,9.57
2023-03-30T02:57:41.749Z,9.52
2023-03-30T02:59:27.111Z,9.50
2023-03-30T03:00:43.080Z,9.60
2023-03-30T03:02:00.431Z,9.61
2023-03-30T03:03:11.206Z,9.68
2023-03-30T03:04:15.601Z,9.64
2023-03-30T03:05:42.961Z,9.67
2023-03-30T03:06:46.905Z,9.64
2023-03-30T03:07:49.724Z,9.58
2023-03-30T03:08:54.801Z,9.53
2023-03-30T03:10:01.148Z,9.65
2023-03-30T03:11:04.255Z,9.71
2023-03-30T03:12:07.431Z,9.67
2023-03-30T03:13:15.091Z,9.56
2023-03-30T03:14:18.900Z,9.57
2023-03-30T03:15:22.414Z,9.54
2023-03-30T03:16:41.140Z,9.49
2023-03-30T03:17:51.568Z,9.49
2023-03-30T03:18:54.276Z,9.50
2023-03-30T03:19:56.621Z,9.51
2023-03-30T03:20:59.408Z,9.49
2023-03-30T03:22:01.909Z,9.47
2023-03-30T03:23:07.298Z,9.56
2023-03-30T03:24:23.261Z,9.52
2023-03-30T03:25:58.264Z,9.50
2023-03-30T03:27:00.926Z,9.49
2023-03-30T03:28:06.060Z,9.57
2023-03-30T03:29:12.184Z,9.54
2023-03-30T03:30:14.612Z,9.49
2023-03-30T03:31:27.909Z,9.35
2023-03-30T03:32:30.539Z,9.37
2023-03-30T03:33:33.484Z,9.47
2023-03-30T03:34:50.811Z,9.51
2023-03-30T03:35:54.304Z,9.61
2023-03-30T03:36:59.447Z,9.64
2023-03-30T03:38:04.239Z,9.56
2023-03-30T03:39:06.542Z,9.60
2023-03-30T03:40:12.110Z,9.55
2023-03-30T03:41:15.607Z,9.59
2023-03-30T03:42:18.883Z,9.60
2023-03-30T03:43:33.433Z,9.51
2023-03-30T03:44:37.699Z,9.60
2023-03-30T03:45:40.208Z,9.54
2023-03-30T03:46:42.501Z,9.50
2023-03-30T03:47:45.136Z,9.47
2023-03-30T03:48:48.115Z,9.46
2023-03-30T03:49:50.382Z,9.51
2023-03-30T03:50:56.584Z,9.54
2023-03-30T03:51:58.805Z,9.60
2023-03-30T03:53:01.129Z,9.56
2023-03-30T03:54:03.790Z,9.51
2023-03-30T03:55:07.876Z,9.58
2023-03-30T03:56:12.693Z,9.53
2023-03-30T03:57:15.216Z,9.50
2023-03-30T03:58:19.184Z,9.50
2023-03-30T03:59:21.595Z,9.48
2023-03-30T04:00:24.018Z,9.45
2023-03-30T04:01:30.075Z,9.48
2023-03-30T04:02:32.563Z,9.46
2023-03-30T04:03:35.161Z,9.51
2023-03-30T04:04:37.597Z,9.45
2023-03-30T04:05:40.923Z,9.45
2023-03-30T04:06:43.312Z,9.45
2023-03-30T04:07:48.731Z,9.41
2023-03-30T04:08:51.133Z,9.42
2023-03-30T04:10:14.466Z,9.41
2023-03-30T04:11:42.539Z,9.27
2023-03-30T04:13:03.291Z,9.21
2023-03-30T04:14:38.180Z,9.24
2023-03-30T04:15:51.945Z,9.26
2023-03-30T04:17:13.066Z,9.26
2023-03-30T04:18:31.552Z,9.20
2023-03-30T04:20:12.777Z,9.05
2023-03-30T04:21:35.802Z,9.22
2023-03-30T04:23:01.900Z,9.30
2023-03-30T04:24:36.801Z,9.21
2023-03-30T04:25:58.047Z,9.32
2023-03-30T04:27:25.905Z,9.28
2023-03-30T04:28:57.836Z,9.22
2023-03-30T04:30:10.743Z,9.26
2023-03-30T04:31:13.633Z,9.22
2023-03-30T04:32:35.054Z,9.22
2023-03-30T04:34:02.700Z,9.19
2023-03-30T04:35:22.977Z,9.16
2023-03-30T04:36:51.170Z,9.17
2023-03-30T04:38:07.472Z,9.02
2023-03-30T04:39:44.923Z,9.18
2023-03-30T04:41:14.369Z,9.03
2023-03-30T04:42:30.596Z,9.10
2023-03-30T04:43:56.119Z,9.15
2023-03-30T04:45:33.458Z,9.10
2023-03-30T04:46:36.532Z,9.15
2023-03-30T04:48:17.322Z,9.08
2023-03-30T04:49:38.302Z,9.18
2023-03-30T04:51:06.980Z,9.26
2023-03-30T04:52:41.281Z,9.11
2023-03-30T04:53:58.721Z,9.12
2023-03-30T04:55:25.951Z,9.10
2023-03-30T04:56:43.332Z,9.04
2023-03-30T04:58:03.319Z,9.06
2023-03-30T04:59:23.806Z,9.07
2023-03-30T05:00:58.560Z,9.08
2023-03-30T05:02:19.271Z,9.07
2023-03-30T05:03:31.506Z,9.02
2023-03-30T05:04:51.108Z,9.02
2023-03-30T05:06:13.025Z,9.04
2023-03-30T05:07:42.265Z,9.00
2023-03-30T05:08:56.581Z,8.97
2023-03-30T05:10:30.844Z,9.05
2023-03-30T05:12:03.813Z,9.07
2023-03-30T05:13:15.474Z,9.14
2023-03-30T05:14:37.390Z,9.20
2023-03-30T05:15:58.316Z,9.24
2023-03-30T05:17:12.881Z,9.16
2023-03-30T05:18:32.793Z,9.25
2023-03-30T05:20:10.595Z,9.28
2023-03-30T05:21:35.880Z,9.29
2023-03-30T05:23:03.989Z,9.29
2023-03-30T05:24:24.861Z,9.29
2023-03-30T05:25:46.516Z,9.37
2023-03-30T05:27:24.020Z,9.34
2023-03-30T05:29:01.639Z,9.36
2023-03-30T05:30:22.482Z,9.39
2023-03-30T05:31:43.300Z,9.44
2023-03-30T05:33:00.794Z,9.52
2023-03-30T05:34:26.216Z,9.46
2023-03-30T05:35:47.186Z,9.48
2023-03-30T05:37:28.190Z,9.51
2023-03-30T05:39:05.066Z,9.62
2023-03-30T05:40:27.588Z,9.74
2023-03-30T05:41:54.432Z,9.64
2023-03-30T05:43:17.036Z,9.49
2023-03-30T05:44:51.658Z,9.66
2023-03-30T05:46:17.318Z,9.73
2023-03-30T05:47:33.545Z,9.71
2023-03-30T05:49:01.868Z,9.66
2023-03-30T05:50:15.398Z,9.67
2023-03-30T05:51:28.536Z,9.73
2023-03-30T05:52:57.062Z,9.80
2023-03-30T05:54:37.808Z,9.84
2023-03-30T05:55:50.164Z,9.87
2023-03-30T05:56:52.825Z,9.87
2023-03-30T05:58:08.550Z,9.96
2023-03-30T05:59:29.538Z,9.98
2023-03-30T06:00:58.304Z,9.96
2023-03-30T06:02:10.974Z,10.14
2023-03-30T06:03:14.472Z,10.07
2023-03-30T06:04:17.758Z,10.12
2023-03-30T06:05:20.391Z,10.16
2023-03-30T06:06:22.866Z,10.16
2023-03-30T06:07:27.976Z,10.22
2023-03-30T06:08:31.398Z,10.32
2023-03-30T06:09:38.517Z,10.28
2023-03-30T06:10:55.332Z,10.33
2023-03-30T06:12:00.409Z,10.29
2023-03-30T06:13:03.568Z,10.16
2023-03-30T06:14:15.929Z,10.24
2023-03-30T06:15:26.131Z,10.23
2023-03-30T06:16:37.054Z,10.14
2023-03-30T06:17:40.117Z,10.09
2023-03-30T06:18:42.655Z,10.12
2023-03-30T06:19:48.718Z,10.19
2023-03-30T06:20:52.217Z,10.21
2023-03-30T06:21:55.776Z,10.22
2023-03-30T06:23:22.991Z,10.30
2023-03-30T06:24:26.566Z,10.33
2023-03-30T06:25:29.711Z,10.39
2023-03-30T06:26:32.341Z,10.41
2023-03-30T06:27:35.840Z,10.44
2023-03-30T06:28:38.443Z,10.39
2023-03-30T06:29:42.142Z,10.38
2023-03-30T06:30:45.722Z,10.40
2023-03-30T06:31:48.951Z,10.48
2023-03-30T06:33:09.788Z,10.62
2023-03-30T06:34:18.103Z,10.66
2023-03-30T06:35:21.457Z,10.72
2023-03-30T06:36:44.482Z,10.82
2023-03-30T06:37:48.552Z,10.88
2023-03-30T06:38:52.322Z,10.98
2023-03-30T06:39:54.799Z,11.07
2023-03-30T06:40:57.205Z,11.06
2023-03-30T06:42:02.018Z,11.10
2023-03-30T06:43:25.373Z,11.06
2023-03-30T06:44:44.860Z,11.06
2023-03-30T06:45:52.295Z,11.18
2023-03-30T06:46:54.700Z,11.20
2023-03-30T06:47:56.987Z,11.23
2023-03-30T06:48:59.542Z,11.27
2023-03-30T06:50:28.112Z,11.37
2023-03-30T06:51:38.626Z,11.44
2023-03-30T06:52:42.419Z,11.57
2023-03-30T06:53:44.663Z,11.60
2023-03-30T06:54:46.908Z,11.67
2023-03-30T06:55:58.246Z,11.70
2023-03-30T06:57:01.615Z,11.66
2023-03-30T06:58:03.934Z,11.68
2023-03-30T06:59:07.107Z,11.72
2023-03-30T07:00:26.961Z,11.73
2023-03-30T07:02:07.960Z,11.71
2023-03-30T07:03:29.972Z,11.68
2023-03-30T07:04:54.466Z,11.73
2023-03-30T07:06:09.634Z,11.79
2023-03-30T07:07:14.336Z,11.72
2023-03-30T07:08:18.803Z,11.74
2023-03-30T07:09:26.593Z,11.72
2023-03-30T07:10:29.056Z,11.68
2023-03-30T07:11:34.104Z,11.71
2023-03-30T07:12:38.530Z,11.74
2023-03-30T07:13:42.106Z,11.77
2023-03-30T07:14:44.618Z,11.79
2023-03-30T07:15:47.043Z,11.77
2023-03-30T07:16:49.818Z,11.92
2023-03-30T07:17:53.722Z,11.95
2023-03-30T07:18:56.200Z,11.98
2023-03-30T07:19:58.904Z,12.02
2023-03-30T07:21:04.638Z,12.12
2023-03-30T07:22:11.699Z,12.21
2023-03-30T07:23:14.930Z,12.17
2023-03-30T07:24:17.217Z,12.13
2023-03-30T07:25:19.527Z,12.14
2023-03-30T07:26:22.267Z,12.02
2023-03-30T07:27:38.296Z,12.12
2023-03-30T07:28:41.025Z,12.21
2023-03-30T07:29:44.402Z,12.09
2023-03-30T07:30:46.874Z,12.10
2023-03-30T07:31:51.011Z,12.08
2023-03-30T07:32:57.719Z,12.07
2023-03-30T07:34:00.731Z,12.07
2023-03-30T07:35:07.066Z,12.07
2023-03-30T07:36:10.072Z,12.08
2023-03-30T07:37:20.204Z,12.05
2023-03-30T07:38:23.864Z,12.07
2023-03-30T07:39:30.100Z,12.00
2023-03-30T07:40:33.870Z,12.05
2023-03-30T07:41:36.417Z,12.18
2023-03-30T07:42:39.023Z,12.29
2023-03-30T07:43:41.525Z,12.32
2023-03-30T07:44:43.912Z,12.29
2023-03-30T07:45:52.129Z,12.27
2023-03-30T07:47:01.733Z,12.30
2023-03-30T07:48:04.156Z,12.43
2023-03-30T07:49:06.438Z,12.53
2023-03-30T07:50:09.868Z,12.54
2023-03-30T07:51:14.127Z,12.60
2023-03-30T07:52:29.588Z,12.72
2023-03-30T07:53:37.037Z,12.80
2023-03-30T07:54:46.668Z,12.95
2023-03-30T07:55:54.005Z,13.08
2023-03-30T07:57:04.606Z,13.17
2023-03-30T07:58:07.878Z,13.24
2023-03-30T07:59:10.625Z,13.24
2023-03-30T08:00:16.898Z,13.38
2023-03-30T08:01:39.360Z,13.44
2023-03-30T08:02:52.076Z,13.59
2023-03-30T08:03:55.927Z,13.76
2023-03-30T08:05:00.162Z,13.83
2023-03-30T08:06:28.349Z,14.04
2023-03-30T08:07:35.462Z,14.10
2023-03-30T08:08:49.585Z,14.23
2023-03-30T08:09:51.828Z,14.34
2023-03-30T08:10:54.116Z,14.44
2023-03-30T08:11:57.415Z,14.64
2023-03-30T08:13:01.199Z,14.93
2023-03-30T08:14:05.246Z,15.27
2023-03-30T08:15:08.124Z,15.78
2023-03-30T08:16:11.720Z,15.89
2023-03-30T08:17:14.548Z,15.81
2023-03-30T08:18:16.877Z,15.89
2023-03-30T08:19:20.557Z,16.09
2023-03-30T08:20:22.818Z,16.47
2023-03-30T08:21:26.100Z,16.84
2023-03-30T08:22:28.580Z,16.96
2023-03-30T08:23:30.780Z,17.02
2023-03-30T08:24:33.255Z,17.29
2023-03-30T08:25:36.245Z,17.59
2023-03-30T08:26:38.853Z,17.96
2023-03-30T08:27:41.291Z,17.99
2023-03-30T08:28:43.631Z,18.23
2023-03-30T08:29:46.033Z,18.54
2023-03-30T08:30:48.782Z,18.70
2023-03-30T08:31:51.988Z,18.66
2023-03-30T08:32:54.527Z,18.67
2023-03-30T08:33:56.843Z,18.78
2023-03-30T08:34:59.220Z,18.85
2023-03-30T08:36:01.682Z,19.10
2023-03-30T08:37:04.242Z,19.16
2023-03-30T08:38:06.615Z,19.22
2023-03-30T08:39:08.910Z,19.07
2023-03-30T08:40:13.012Z,18.79
2023-03-30T08:41:43.864Z,18.94
2023-03-30T08:43:03.059Z,19.02
2023-03-30T08:44:21.146Z,18.93
2023-03-30T08:45:23.432Z,18.77
2023-03-30T08:46:26.140Z,18.87
2023-03-30T08:47:39.629Z,18.79
2023-03-30T08:48:43.188Z,18.69
2023-03-30T08:50:00.702Z,18.51
2023-03-30T08:51:17.414Z,18.54
2023-03-30T08:52:24.687Z,18.55
2023-03-30T08:53:29.279Z,18.42
2023-03-30T08:54:33.051Z,18.58
2023-03-30T08:55:47.242Z,18.60
2023-03-30T08:57:21.091Z,18.62
2023-03-30T08:58:34.914Z,18.43
2023-03-30T08:59:45.277Z,18.44
2023-03-30T09:01:02.115Z,18.52
2023-03-30T09:02:28.717Z,18.34
2023-03-30T09:03:44.933Z,18.26
2023-03-30T09:04:58.970Z,18.18
2023-03-30T09:06:18.438Z,18.08
2023-03-30T09:07:23.577Z,18.09
2023-03-30T09:08:29.445Z,18.13
2023-03-30T09:09:41.620Z,18.05
2023-03-30T09:10:50.039Z,17.91
2023-03-30T09:12:06.655Z,17.95
2023-03-30T09:13:14.470Z,17.89
2023-03-30T09:14:37.576Z,17.84
2023-03-30T09:15:48.607Z,17.73
2023-03-30T09:16:56.003Z,17.65
2023-03-30T09:18:18.406Z,17.60
2023-03-30T09:19:50.663Z,17.61
2023-03-30T09:20:56.370Z,17.46
2023-03-30T09:22:00.505Z,17.39
2023-03-30T09:23:04.004Z,17.32
2023-03-30T09:24:16.408Z,17.31
2023-03-30T09:25:26.699Z,17.32
2023-03-30T09:27:08.240Z,17.40
2023-03-30T09:28:20.610Z,17.40
2023-03-30T09:29:35.862Z,17.35
2023-03-30T09:30:45.781Z,17.18
2023-03-30T09:31:53.765Z,17.04
2023-03-30T09:33:25.595Z,17.00
2023-03-30T09:34:54.412Z,16.99
2023-03-30T09:36:29.598Z,16.92
2023-03-30T09:37:32.747Z,17.00
2023-03-30T09:38:38.151Z,16.98
2023-03-30T09:39:41.466Z,16.89
2023-03-30T09:41:07.633Z,16.82
2023-03-30T09:42:25.050Z,16.76
2023-03-30T09:43:44.610Z,16.77
2023-03-30T09:44:56.955Z,16.73
2023-03-30T09:46:05.317Z,16.75
2023-03-30T09:47:28.316Z,16.72
2023-03-30T09:48:39.218Z,16.72
2023-03-30T09:49:41.490Z,16.75
2023-03-30T09:50:45.974Z,16.74
2023-03-30T09:52:22.311Z,16.76
2023-03-30T09:53:27.701Z,16.84
2023-03-30T09:54:40.960Z,16.90
2023-03-30T09:55:55.724Z,16.99
2023-03-30T09:56:58.182Z,17.04
2023-03-30T09:58:26.763Z,17.08
2023-03-30T09:59:35.742Z,17.17
2023-03-30T10:00:38.032Z,17.22
2023-03-30T10:01:40.788Z,17.29
2023-03-30T10:02:56.590Z,17.30
2023-03-30T10:04:11.027Z,17.34
2023-03-30T10:05:18.207Z,17.47
2023-03-30T10:06:21.717Z,17.55
2023-03-30T10:07:27.405Z,17.54
2023-03-30T10:08:29.987Z,17.53
2023-03-30T10:09:32.441Z,17.54
2023-03-30T10:10:37.562Z,17.55
2023-03-30T10:11:49.382Z,17.63
2023-03-30T10:12:54.814Z,17.64
2023-03-30T10:13:58.165Z,17.69
2023-03-30T10:15:04.326Z,17.74
2023-03-30T10:16:11.603Z,17.75
2023-03-30T10:17:22.246Z,17.82
2023-03-30T10:18:29.646Z,17.89
2023-03-30T10:19:37.570Z,17.82
2023-03-30T10:20:41.504Z,17.82
2023-03-30T10:21:46.984Z,17.87
2023-03-30T10:22:53.564Z,17.86
2023-03-30T10:24:08.350Z,17.98
2023-03-30T10:25:19.744Z,18.00
2023-03-30T10:26:30.629Z,17.87
2023-03-30T10:27:39.593Z,17.92
2023-03-30T10:28:53.735Z,17.90
2023-03-30T10:29:56.382Z,17.91
2023-03-30T10:31:03.058Z,17.76
2023-03-30T10:32:16.226Z,17.71
2023-03-30T10:33:40.951Z,17.72
2023-03-30T10:34:51.395Z,17.70
2023-03-30T10:35:56.451Z,17.77
2023-03-30T10:36:58.835Z,17.80
2023-03-30T10:38:01.970Z,17.67
2023-03-30T10:39:06.482Z,17.64
2023-03-30T10:40:16.974Z,17.67
2023-03-30T10:41:24.156Z,17.70
2023-03-30T10:42:28.330Z,17.61
2023-03-30T10:43:32.908Z,17.59
2023-03-30T10:44:50.407Z,17.51
2023-03-30T10:45:58.410Z,17.51
2023-03-30T10:47:36.556Z,17.49
2023-03-30T10:49:10.275Z,17.49
2023-03-30T10:50:32.732Z,17.50
2023-03-30T10:51:50.081Z,17.44
2023-03-30T10:52:59.114Z,17.47
2023-03-30T10:54:07.704Z,17.45
2023-03-30T10:55:18.016Z,17.52
2023-03-30T10:56:30.134Z,17.53
2023-03-30T10:58:13.485Z,17.45
2023-03-30T10:59:18.900Z,17.39
2023-03-30T11:00:44.272Z,17.31
2023-03-30T11:02:18.878Z,17.32
2023-03-30T11:03:27.459Z,17.32
2023-03-30T11:04:46.899Z,17.34
2023-03-30T11:05:56.281Z,17.21
2023-03-30T11:07:01.244Z,17.24
2023-03-30T11:08:12.315Z,17.28
2023-03-30T11:09:24.536Z,17.27
2023-03-30T11:10:31.968Z,17.32
2023-03-30T11:12:03.423Z,17.31
2023-03-30T11:13:05.799Z,17.32
2023-03-30T11:14:16.964Z,17.24
2023-03-30T11:15:29.579Z,17.32
2023-03-30T11:16:53.799Z,17.41
2023-03-30T11:18:35.249Z,17.27
2023-03-30T11:19:49.705Z,17.37
2023-03-30T11:21:02.361Z,17.38
2023-03-30T11:22:23.187Z,17.40
2023-03-30T11:23:28.395Z,17.23
2023-03-30T11:24:31.130Z,17.27
2023-03-30T11:25:41.982Z,17.26
2023-03-30T11:27:05.592Z,17.31
2023-03-30T11:28:45.225Z,17.33
2023-03-30T11:30:09.428Z,17.32
2023-03-30T11:31:47.013Z,17.20
2023-03-30T11:33:19.486Z,17.10
2023-03-30T11:34:58.668Z,16.95
2023-03-30T11:36:24.722Z,17.01
2023-03-30T11:37:36.116Z,16.88
2023-03-30T11:38:51.455Z,16.89
2023-03-30T11:40:11.236Z,16.85
2023-03-30T11:41:23.682Z,16.61
2023-03-30T11:42:32.234Z,16.46
2023-03-30T11:43:34.431Z,16.53
2023-03-30T11:44:36.836Z,16.63
2023-03-30T11:45:48.612Z,16.71
2023-03-30T11:46:56.237Z,16.73
2023-03-30T11:48:01.978Z,16.75
2023-03-30T11:49:39.529Z,16.79
2023-03-30T11:51:00.712Z,16.88
2023-03-30T11:52:21.634Z,17.02
2023-03-30T11:53:27.485Z,17.06
2023-03-30T11:55:02.312Z,17.10
2023-03-30T11:56:26.843Z,17.02
2023-03-30T11:57:49.263Z,17.06
2023-03-30T11:59:30.840Z,17.04
2023-03-30T12:00:35.997Z,17.09
2023-03-30T12:02:09.597Z,17.08
2023-03-30T12:03:27.346Z,17.05
2023-03-30T12:04:53.272Z,17.02
2023-03-30T12:06:13.898Z,17.00
2023-03-30T12:07:32.775Z,17.01
2023-03-30T12:08:52.078Z,16.95
2023-03-30T12:09:56.787Z,16.94
2023-03-30T12:11:07.397Z,16.98
2023-03-30T12:12:16.829Z,16.89
2023-03-30T12:13:20.994Z,16.87
2023-03-30T12:14:51.383Z,16.75
2023-03-30T12:16:08.794Z,16.66
2023-03-30T12:17:36.123Z,16.66
2023-03-30T12:18:43.613Z,16.76
2023-03-30T12:20:04.057Z,16.77
2023-03-30T12:21:12.047Z,16.78
2023-03-30T12:22:36.286Z,16.82
2023-03-30T12:24:01.789Z,16.88
2023-03-30T12:25:31.918Z,16.94
2023-03-30T12:26:35.158Z,16.92
2023-03-30T12:28:12.167Z,16.94
2023-03-30T12:30:44.255Z,17.20
2023-03-30T12:32:03.592Z,17.31
2023-03-30T12:33:18.496Z,17.39
2023-03-30T12:34:22.621Z,17.38
2023-03-30T12:35:49.840Z,17.47
2023-03-30T12:37:18.238Z,17.49
2023-03-30T12:38:25.973Z,17.50
2023-03-30T12:39:32.757Z,17.54
2023-03-30T12:40:38.387Z,17.52
2023-03-30T12:41:49.952Z,17.41
2023-03-30T12:43:16.318Z,17.30
2023-03-30T12:44:54.655Z,17.26
2023-03-30T12:46:09.093Z,17.29
2023-03-30T12:47:33.665Z,17.46
2023-03-30T12:49:08.162Z,17.61
2023-03-30T12:50:27.749Z,17.71
2023-03-30T12:51:58.260Z,17.59
2023-03-30T12:53:12.397Z,17.63
2023-03-30T12:54:53.337Z,17.62
2023-03-30T12:56:06.158Z,17.81
2023-03-30T12:57:33.216Z,17.77
2023-03-30T12:58:51.730Z,17.84
2023-03-30T13:00:19.075Z,17.77
2023-03-30T13:01:46.189Z,17.95
2023-03-30T13:02:57.040Z,17.95
2023-03-30T13:04:00.964Z,17.98
2023-03-30T13:05:16.842Z,17.92
2023-03-30T13:06:27.403Z,18.08
2023-03-30T13:07:32.013Z,18.15
2023-03-30T13:08:41.176Z,18.27
2023-03-30T13:10:01.859Z,18.21
2023-03-30T13:11:17.641Z,18.26
2023-03-30T13:12:38.448Z,18.30
2023-03-30T13:13:59.953Z,18.40
2023-03-30T13:15:17.569Z,18.31
2023-03-30T13:16:49.121Z,18.33
2023-03-30T13:18:09.659Z,18.31
2023-03-30T13:19:27.694Z,18.48
2023-03-30T13:20:30.717Z,18.50
2023-03-30T13:21:47.968Z,18.47
2023-03-30T13:23:27.412Z,18.49
2023-03-30T13:24:32.687Z,18.43
2023-03-30T13:26:07.800Z,18.60
2023-03-30T13:27:19.174Z,18.64
2023-03-30T13:28:36.682Z,18.60
2023-03-30T13:29:39.420Z,18.58
2023-03-30T13:30:46.046Z,18.49
2023-03-30T13:32:07.831Z,18.55
2023-03-30T13:33:29.430Z,18.60
2023-03-30T13:35:06.638Z,18.73
2023-03-30T13:36:16.221Z,18.74
2023-03-30T13:37:27.693Z,18.77
2023-03-30T13:38:30.082Z,18.79
2023-03-30T13:39:45.964Z,18.72
2023-03-30T13:41:11.222Z,18.63
2023-03-30T13:42:42.478Z,18.47
2023-03-30T13:44:03.049Z,18.45
2023-03-30T13:45:24.070Z,18.44
2023-03-30T13:46:43.379Z,18.35
2023-03-30T13:48:07.818Z,18.14
2023-03-30T13:49:27.986Z,18.09
2023-03-30T13:50:34.505Z,18.05
2023-03-30T13:51:39.239Z,18.01
2023-03-30T13:52:46.710Z,18.05
2023-03-30T13:53:54.129Z,18.09
2023-03-30T13:54:57.874Z,18.15
2023-03-30T13:56:00.326Z,18.19
2023-03-30T13:57:09.592Z,18.25
2023-03-30T13:58:29.804Z,18.33
2023-03-30T13:59:35.263Z,18.40
2023-03-30T14:00:46.535Z,18.47
2023-03-30T14:01:55.092Z,18.47
2023-03-30T14:02:57.838Z,18.55
2023-03-30T14:04:03.811Z,18.54
2023-03-30T14:05:20.931Z,18.58
2023-03-30T14:06:29.587Z,18.68
2023-03-30T14:07:41.930Z,18.82
2023-03-30T14:08:48.183Z,18.73
2023-03-30T14:10:12.955Z,18.75
2023-03-30T14:11:17.670Z,18.83
2023-03-30T14:12:20.344Z,18.78
2023-03-30T14:13:23.461Z,18.65
2023-03-30T14:14:31.317Z,18.70
2023-03-30T14:15:37.318Z,18.66
2023-03-30T14:16:40.824Z,18.72
2023-03-30T14:17:48.232Z,18.62
2023-03-30T14:18:50.954Z,18.68
2023-03-30T14:20:15.059Z,18.79
2023-03-30T14:21:24.118Z,18.80
2023-03-30T14:22:28.759Z,18.94
2023-03-30T14:23:41.310Z,18.90
2023-03-30T14:25:05.367Z,18.86
2023-03-30T14:26:17.752Z,18.81
2023-03-30T14:27:20.219Z,18.77
2023-03-30T14:28:22.683Z,18.83
2023-03-30T14:29:31.489Z,18.89
2023-03-30T14:30:35.046Z,18.95
2023-03-30T14:31:42.605Z,18.79
2023-03-30T14:32:45.543Z,18.84
2023-03-30T14:33:48.548Z,18.86
2023-03-30T14:34:53.059Z,18.98
2023-03-30T14:35:58.484Z,19.05
2023-03-30T14:37:06.954Z,19.05
2023-03-30T14:38:34.902Z,19.17
2023-03-30T14:39:47.435Z,19.23
2023-03-30T14:40:52.015Z,19.19
2023-03-30T14:41:56.348Z,19.18
2023-03-30T14:43:00.168Z,19.15
2023-03-30T14:44:05.542Z,19.14
2023-03-30T14:45:09.174Z,19.08
2023-03-30T14:46:12.856Z,19.12
2023-03-30T14:47:19.434Z,19.01
2023-03-30T14:48:33.569Z,19.06
2023-03-30T14:49:37.150Z,19.06
2023-03-30T14:50:39.837Z,19.16
2023-03-30T14:51:43.833Z,19.12
2023-03-30T14:52:47.118Z,19.08
2023-03-30T14:53:51.053Z,19.02
2023-03-30T14:55:06.071Z,18.98
2023-03-30T14:56:11.987Z,18.82
2023-03-30T14:57:17.454Z,18.78
2023-03-30T14:58:20.078Z,18.80
2023-03-30T14:59:23.387Z,18.86
2023-03-30T15:00:26.530Z,18.79
2023-03-30T15:01:32.145Z,18.93
2023-03-30T15:02:37.700Z,18.87
2023-03-30T15:03:41.974Z,18.83
2023-03-30T15:04:44.593Z,18.76
2023-03-30T15:05:47.012Z,18.72
2023-03-30T15:06:49.440Z,18.77
2023-03-30T15:07:52.888Z,18.79
2023-03-30T15:09:01.211Z,18.82
2023-03-30T15:10:04.790Z,18.91
2023-03-30T15:11:12.557Z,19.05
2023-03-30T15:12:23.677Z,19.15
2023-03-30T15:13:49.695Z,19.12
2023-03-30T15:14:58.137Z,19.11
2023-03-30T15:16:02.043Z,19.05
2023-03-30T15:17:13.861Z,19.10
2023-03-30T15:18:23.960Z,19.06
2023-03-30T15:19:31.089Z,19.04
2023-03-30T15:20:33.821Z,19.00
2023-03-30T15:21:37.805Z,18.97
2023-03-30T15:22:51.555Z,18.98
2023-03-30T15:23:54.137Z,18.99
2023-03-30T15:24:58.999Z,18.93
2023-03-30T15:26:04.034Z,18.90
2023-03-30T15:27:11.775Z,18.81
2023-03-30T15:28:20.844Z,18.86
2023-03-30T15:29:24.922Z,18.93
2023-03-30T15:30:35.438Z,18.94
2023-03-30T15:31:40.261Z,18.89
2023-03-30T15:32:43.617Z,18.77
2023-03-30T15:33:51.917Z,18.74
2023-03-30T15:35:43.476Z,18.69
2023-03-30T15:36:53.628Z,18.61
2023-03-30T15:37:57.331Z,18.48
2023-03-30T15:38:59.807Z,18.34
2023-03-30T15:40:04.675Z,18.13
2023-03-30T15:41:15.035Z,18.06
2023-03-30T15:42:32.184Z,18.04